Mistral 7 — FW8956 — position and weather

sailwx.info

Track history (hours):
 
Tides and Currents Weather Stations Pressure Air Temp Water Temp Dewpoint Dewpoint Depression Visibility Wind Speed Wind Dir Waves Ship Positions

Mistral 7

Last reported at 2017-Dec-17 11:59 UTC. Time now 2017-Dec-17 12:05 UTC.
Position N 43°21' E 005°19'.

Length 30 m; draft 5 m.

Type: Tug. MMSI: 227006650.

Date/timePositionNaut miles runAvg speedWind from/ knotsBaromVisibWave heightAir tempDewpointWater temp
2017-Dec-17 11:59N 43°21' E 005°19'0 0.0
2017-Dec-17 11:26N 43°21' E 005°19'0 0.0
2017-Dec-17 10:58N 43°21' E 005°19'0 0.0
2017-Dec-17 10:27N 43°21' E 005°19'0 0.0
2017-Dec-17 09:59N 43°21' E 005°19'0 0.0
2017-Dec-17 09:28N 43°21' E 005°19'0 0.0
2017-Dec-17 09:00N 43°21' E 005°19'0 0.3
2017-Dec-17 07:38N 43°21' E 005°20'0 1.8
2017-Dec-17 07:26N 43°21' E 005°19'2 5.4
2017-Dec-17 07:00N 43°19' E 005°21'1 1.6
2017-Dec-17 06:28N 43°18' E 005°22'0 1.0
2017-Dec-17 06:00N 43°18' E 005°22'1 1.9
2017-Dec-17 05:29N 43°19' E 005°22'3 0.5
2017-Dec-16 23:54N 43°21' E 005°19'0 0.0
2017-Dec-16 23:28N 43°21' E 005°19'0 0.0
2017-Dec-16 22:58N 43°21' E 005°19'0 0.0
2017-Dec-16 22:30N 43°21' E 005°19'0 0.0
2017-Dec-16 21:52N 43°21' E 005°19'0 0.0
2017-Dec-16 21:19N 43°21' E 005°19'0 0.8
2017-Dec-16 20:50N 43°21' E 005°20'0 1.1
2017-Dec-16 20:30N 43°21' E 005°19'0 0.0
2017-Dec-16 19:59N 43°21' E 005°19'0 0.0
2017-Dec-16 19:30N 43°21' E 005°19'0 0.0
2017-Dec-16 18:55N 43°21' E 005°19'0 0.0
2017-Dec-16 18:26N 43°21' E 005°19'2 5.4
2017-Dec-16 18:00N 43°19' E 005°21'0 0.4
2017-Dec-16 17:29N 43°19' E 005°21'1 2.7
2017-Dec-16 17:00N 43°18' E 005°22'0 0.6
2017-Dec-16 16:31N 43°18' E 005°21'3 6.7
2017-Dec-16 16:00N 43°21' E 005°20'0 0.6
2017-Dec-16 15:31N 43°21' E 005°19'0 0.0
2017-Dec-16 15:00N 43°21' E 005°19'2 3.4
2017-Dec-16 14:30N 43°20' E 005°21'1 0.9
2017-Dec-16 13:51N 43°20' E 005°20'1 2.9
2017-Dec-16 13:31N 43°21' E 005°19'0 0.8
2017-Dec-16 13:00N 43°21' E 005°19'1 1.2
2017-Dec-16 12:29N 43°21' E 005°20'0 0.8
2017-Dec-16 11:56N 43°20' E 005°20'1 1.4
2017-Dec-16 11:30N 43°20' E 005°21'1 3.0
2017-Dec-16 11:00N 43°21' E 005°19'0 0.0
2017-Dec-16 10:30N 43°21' E 005°19'0 0.0
2017-Dec-16 10:00N 43°21' E 005°19'0 0.0
2017-Dec-16 09:30N 43°21' E 005°19'0 0.0
2017-Dec-16 09:00N 43°21' E 005°19'0 0.0
2017-Dec-16 08:30N 43°21' E 005°19'0 0.5
2017-Dec-16 07:59N 43°21' E 005°19'0 0.6
2017-Dec-16 07:30N 43°21' E 005°19'0 0.0
2017-Dec-16 06:58N 43°21' E 005°19'0 0.0
2017-Dec-16 06:29N 43°21' E 005°19'1 1.1
2017-Dec-16 06:00N 43°21' E 005°20'1 1.0
2017-Dec-16 05:29N 43°21' E 005°19'1 1.2
2017-Dec-16 05:00N 43°21' E 005°20'0 0.4
2017-Dec-16 04:24N 43°21' E 005°20'0 1.0
2017-Dec-16 04:00N 43°21' E 005°19'0 0.0
2017-Dec-16 03:30N 43°21' E 005°19'0 0.0
2017-Dec-16 02:59N 43°21' E 005°19'0 0.0
2017-Dec-16 02:30N 43°21' E 005°19'0 0.0
2017-Dec-16 01:59N 43°21' E 005°19'0 0.0
2017-Dec-16 01:30N 43°21' E 005°19'0 0.0
2017-Dec-16 01:00N 43°21' E 005°19'0 0.0
2017-Dec-16 00:30N 43°21' E 005°19'0 0.0
2017-Dec-16 00:00N 43°21' E 005°19'0 0.0
2017-Dec-15 23:29N 43°21' E 005°19'0 0.0
2017-Dec-15 23:00N 43°21' E 005°19'0 0.0
2017-Dec-15 22:29N 43°21' E 005°19'0 0.0
2017-Dec-15 21:58N 43°21' E 005°19'0 0.0
2017-Dec-15 21:27N 43°21' E 005°19'0 0.0
2017-Dec-15 20:59N 43°21' E 005°19'0 0.0
2017-Dec-15 20:29N 43°21' E 005°19'0 0.0
2017-Dec-15 20:00N 43°21' E 005°19'0 0.0
2017-Dec-15 19:27N 43°21' E 005°19'0 0.0
2017-Dec-15 19:00N 43°21' E 005°19'0 0.0
2017-Dec-15 18:29N 43°21' E 005°19'0 0.0
2017-Dec-15 17:59N 43°21' E 005°19'0 0.0
2017-Dec-15 17:27N 43°21' E 005°19'0 0.0
2017-Dec-15 16:58N 43°21' E 005°19'0 0.0
2017-Dec-15 16:16N 43°21' E 005°19'0 0.0
2017-Dec-15 15:51N 43°21' E 005°19'0 0.0
2017-Dec-15 15:30N 43°21' E 005°19'0 0.0
2017-Dec-15 14:57N 43°21' E 005°19'0 0.0
2017-Dec-15 14:24N 43°21' E 005°19'0 0.0
2017-Dec-15 14:00N 43°21' E 005°19'0 0.0
2017-Dec-15 13:13N 43°21' E 005°19'0 0.0
2017-Dec-15 12:58N 43°21' E 005°19'0 0.0
2017-Dec-15 12:30N 43°21' E 005°19'0 0.0
2017-Dec-15 11:59N 43°21' E 005°19'0 0.0
2017-Dec-15 11:30N 43°21' E 005°19'0 0.0
2017-Dec-15 11:00N 43°21' E 005°19'0 0.0
2017-Dec-15 10:30N 43°21' E 005°19'0 0.0
2017-Dec-15 10:00N 43°21' E 005°19'0 0.0
2017-Dec-15 09:25N 43°21' E 005°19'0 0.0
2017-Dec-15 08:56N 43°21' E 005°19'0 0.0
2017-Dec-15 08:29N 43°21' E 005°19'0 0.0
2017-Dec-15 07:58N 43°21' E 005°19'0 0.0
2017-Dec-15 07:30N 43°21' E 005°19'0 0.0
2017-Dec-15 06:58N 43°21' E 005°19'0 0.0
2017-Dec-15 06:19N 43°21' E 005°19'0 0.0
2017-Dec-15 06:00N 43°21' E 005°19'0 0.0
2017-Dec-15 05:30N 43°21' E 005°19'0 0.0
2017-Dec-15 05:00N 43°21' E 005°19'0 0.0
2017-Dec-15 04:28N 43°21' E 005°19'0 0.0
2017-Dec-15 04:00N 43°21' E 005°19'0 0.0
2017-Dec-15 02:20N 43°21' E 005°19'0 0.0
2017-Dec-15 00:50N 43°21' E 005°19'0 0.0
2017-Dec-15 00:23N 43°21' E 005°19'0 0.1
2017-Dec-14 18:24N 43°21' E 005°20'0 1.2
2017-Dec-14 17:59N 43°21' E 005°19'0 0.0
2017-Dec-14 17:27N 43°21' E 005°19'0 0.0
2017-Dec-14 16:55N 43°21' E 005°19'0 0.0
2017-Dec-14 14:35N 43°21' E 005°19'0 0.0
2017-Dec-14 14:16N 43°21' E 005°19'0 0.0
2017-Dec-14 13:56N 43°21' E 005°19'0 0.0
2017-Dec-14 13:28N 43°21' E 005°19'0 0.0
2017-Dec-14 12:47N 43°21' E 005°19'0 0.0
2017-Dec-14 12:30N 43°21' E 005°19'0 0.0
2017-Dec-14 11:57N 43°21' E 005°19'0 0.0
2017-Dec-14 11:29N 43°21' E 005°19'0 0.0
2017-Dec-14 10:03N 43°21' E 005°19'0 0.0
2017-Dec-14 10:00N 43°21' E 005°19'0 0.0
2017-Dec-13 22:50N 43°21' E 005°19'0 0.0
2017-Dec-13 20:39N 43°21' E 005°19'0 0.0
2017-Dec-13 20:17N 43°21' E 005°19'0 0.0
2017-Dec-13 19:52N 43°21' E 005°19'0 0.0
2017-Dec-13 19:11N 43°21' E 005°19'0 0.0
2017-Dec-13 18:59N 43°21' E 005°19'0 0.0
2017-Dec-13 18:12N 43°21' E 005°19'0 0.0
2017-Dec-13 18:00N 43°21' E 005°19'0 0.0
2017-Dec-13 17:30N 43°21' E 005°19'0 0.0
2017-Dec-13 17:00N 43°21' E 005°19'0 0.0
2017-Dec-13 16:29N 43°21' E 005°19'0 0.0
2017-Dec-13 16:00N 43°21' E 005°19'0 0.0
2017-Dec-13 15:28N 43°21' E 005°19'0 0.0
2017-Dec-13 14:58N 43°21' E 005°19'0 0.0
2017-Dec-13 13:57N 43°21' E 005°19'0 0.0
2017-Dec-13 13:16N 43°21' E 005°19'0 0.0
2017-Dec-13 12:58N 43°21' E 005°19'0 0.0
2017-Dec-13 12:30N 43°21' E 005°19'0 0.0
2017-Dec-13 11:56N 43°21' E 005°19'0 0.0
2017-Dec-13 11:28N 43°21' E 005°19'0 0.0
2017-Dec-13 10:59N 43°21' E 005°19'0 0.0
2017-Dec-13 10:22N 43°21' E 005°19'0 0.0
2017-Dec-13 10:00N 43°21' E 005°19'0 0.0
2017-Dec-13 09:29N 43°21' E 005°19'0 0.0
2017-Dec-13 08:58N 43°21' E 005°19'0 0.0
2017-Dec-13 08:30N 43°21' E 005°19'0 0.0
2017-Dec-13 08:00N 43°21' E 005°19'0 0.5
2017-Dec-13 07:16N 43°21' E 005°19'0 1.2
2017-Dec-13 07:00N 43°21' E 005°19'0 0.0
2017-Dec-13 06:30N 43°21' E 005°19'0 0.0
2017-Dec-13 05:59N 43°21' E 005°19'0 0.0
2017-Dec-13 05:29N 43°21' E 005°19'0 0.0
2017-Dec-13 04:56N 43°21' E 005°19'0 0.0
2017-Dec-13 04:30N 43°21' E 005°19'0 0.0
2017-Dec-13 03:58N 43°21' E 005°19'0 0.0
2017-Dec-13 03:29N 43°21' E 005°19'0 0.0
2017-Dec-13 02:58N 43°21' E 005°19'0 0.0
2017-Dec-13 02:30N 43°21' E 005°19'0 0.0
2017-Dec-13 02:00N 43°21' E 005°19'0 0.0
2017-Dec-13 01:29N 43°21' E 005°19'0 0.0
2017-Dec-13 01:00N 43°21' E 005°19'0 0.0
2017-Dec-13 00:30N 43°21' E 005°19'0 0.0
2017-Dec-12 23:31N 43°21' E 005°19'0 0.0
2017-Dec-12 23:24N 43°21' E 005°19'0 0.0
2017-Dec-12 23:00N 43°21' E 005°19'0 0.0
2017-Dec-12 22:30N 43°21' E 005°19'0 0.0
2017-Dec-12 21:57N 43°21' E 005°19'0 0.0
2017-Dec-12 21:29N 43°21' E 005°19'0 0.0
2017-Dec-12 20:59N 43°21' E 005°19'0 0.0
2017-Dec-12 20:29N 43°21' E 005°19'0 0.2
2017-Dec-12 19:53N 43°21' E 005°20'0 0.2
2017-Dec-12 19:12N 43°21' E 005°19'0 0.0
2017-Dec-12 18:55N 43°21' E 005°19'0 0.0
2017-Dec-12 18:25N 43°21' E 005°19'0 0.0
2017-Dec-12 18:00N 43°21' E 005°19'0 0.0
2017-Dec-12 17:25N 43°21' E 005°19'0 0.0
2017-Dec-12 16:57N 43°21' E 005°19'0 0.0
2017-Dec-12 16:29N 43°21' E 005°19'0 0.0
2017-Dec-12 16:00N 43°21' E 005°19'0 0.0
2017-Dec-12 15:29N 43°21' E 005°19'0 0.0
2017-Dec-12 13:51N 43°21' E 005°19'0 0.0
2017-Dec-12 13:29N 43°21' E 005°19'0 0.0
2017-Dec-12 12:50N 43°21' E 005°19'0 0.0
2017-Dec-12 12:28N 43°21' E 005°19'0 0.0
2017-Dec-12 11:54N 43°21' E 005°19'0 0.0
2017-Dec-12 10:46N 43°21' E 005°19'0 0.0
2017-Dec-12 10:29N 43°21' E 005°19'0 0.0
2017-Dec-12 09:59N 43°21' E 005°19'0 0.0
2017-Dec-12 09:28N 43°21' E 005°19'0 0.0
2017-Dec-12 09:00N 43°21' E 005°19'0 0.0
2017-Dec-12 08:29N 43°21' E 005°19'0 0.0
2017-Dec-12 08:00N 43°21' E 005°19'2 4.0
2017-Dec-12 07:29N 43°19' E 005°21'0 0.8
2017-Dec-12 07:00N 43°19' E 005°22'2 3.7
2017-Dec-12 06:24N 43°21' E 005°19'0 0.3
2017-Dec-12 06:00N 43°21' E 005°19'0 0.0
2017-Dec-12 05:25N 43°21' E 005°19'0 0.0
2017-Dec-12 03:50N 43°21' E 005°19'0 0.0
2017-Dec-12 03:30N 43°21' E 005°19'0 0.0
2017-Dec-12 02:43N 43°21' E 005°19'0 0.0
2017-Dec-12 02:26N 43°21' E 005°19'0 0.0
2017-Dec-12 01:57N 43°21' E 005°19'0 0.0
2017-Dec-12 01:29N 43°21' E 005°19'0 0.0
2017-Dec-12 00:59N 43°21' E 005°19'0 0.0
2017-Dec-12 00:14N 43°21' E 005°19'0 0.0
2017-Dec-11 23:58N 43°21' E 005°19'0 0.0
2017-Dec-11 23:21N 43°21' E 005°19'0 0.0
2017-Dec-11 23:00N 43°21' E 005°19'0 0.0
2017-Dec-11 22:29N 43°21' E 005°19'0 0.0
2017-Dec-11 21:56N 43°21' E 005°19'1 0.5
2017-Dec-11 20:40N 43°21' E 005°20'1 2.3
2017-Dec-11 20:26N 43°21' E 005°19'0 0.0
2017-Dec-11 19:59N 43°21' E 005°19'0 0.0
2017-Dec-11 19:28N 43°21' E 005°19'0 0.0
2017-Dec-11 18:55N 43°21' E 005°19'0 0.0
2017-Dec-11 18:24N 43°21' E 005°19'0 0.0
2017-Dec-11 17:51N 43°21' E 005°19'0 0.0
2017-Dec-11 17:26N 43°21' E 005°19'0 0.0
2017-Dec-11 16:57N 43°21' E 005°19'0 0.0
2017-Dec-11 16:22N 43°21' E 005°19'0 0.0
2017-Dec-11 15:53N 43°21' E 005°19'0 0.0
2017-Dec-11 15:29N 43°21' E 005°19'0 0.0
2017-Dec-11 15:00N 43°21' E 005°19'0 0.0
2017-Dec-11 14:24N 43°21' E 005°19'2 1.2
2017-Dec-11 13:03N 43°20' E 005°21'210.4
2017-Dec-11 12:53N 43°21' E 005°19'1 1.4
2017-Dec-11 12:22N 43°21' E 005°20'1 1.7
2017-Dec-11 11:59N 43°21' E 005°19'0 0.2
2017-Dec-11 11:00N 43°21' E 005°19'0 0.0
2017-Dec-11 10:27N 43°21' E 005°19'0 0.0
2017-Dec-11 09:58N 43°21' E 005°19'0 0.0
2017-Dec-11 09:12N 43°21' E 005°19'0 0.0
2017-Dec-11 08:48N 43°21' E 005°19'0 0.0
2017-Dec-11 08:21N 43°21' E 005°19'0 0.0
2017-Dec-11 07:59N 43°21' E 005°19'0 0.1
2017-Dec-11 06:46N 43°21' E 005°19'1 0.9
2017-Dec-11 06:11N 43°21' E 005°20'1 2.7
2017-Dec-11 05:55N 43°21' E 005°19'1 2.7
2017-Dec-11 05:30N 43°20' E 005°20'1 1.9
2017-Dec-11 04:58N 43°21' E 005°19'0 0.4
2017-Dec-11 04:30N 43°21' E 005°19'0 0.0
2017-Dec-11 03:58N 43°21' E 005°19'0 0.0
2017-Dec-11 03:17N 43°21' E 005°19'0 0.0
2017-Dec-11 02:58N 43°21' E 005°19'2 5.2
2017-Dec-11 02:30N 43°19' E 005°21'1 2.9
2017-Dec-11 02:00N 43°20' E 005°20'1 1.8
2017-Dec-11 01:29N 43°21' E 005°19'0 0.0
2017-Dec-11 00:57N 43°21' E 005°19'0 0.0
2017-Dec-11 00:04N 43°21' E 005°19'0 0.0
2017-Dec-10 23:47N 43°21' E 005°19'0 0.0
2017-Dec-10 23:25N 43°21' E 005°19'0 0.0
2017-Dec-10 22:49N 43°21' E 005°19'0 0.0
2017-Dec-10 22:11N 43°21' E 005°19'0 0.0
2017-Dec-10 22:00N 43°21' E 005°19'0 0.0
2017-Dec-10 19:54N 43°21' E 005°19'0 0.0
2017-Dec-10 19:25N 43°21' E 005°19'0 0.0
2017-Dec-10 18:57N 43°21' E 005°19'0 0.0
2017-Dec-10 18:24N 43°21' E 005°19'0 0.0
2017-Dec-10 17:51N 43°21' E 005°19'0 0.0
2017-Dec-10 16:03N 43°21' E 005°19'0 0.0
2017-Dec-10 15:44N 43°21' E 005°19'0 0.0
2017-Dec-10 15:26N 43°21' E 005°19'0 0.0
2017-Dec-10 12:13N 43°21' E 005°19'0 0.0
2017-Dec-10 11:48N 43°21' E 005°19'0 0.0
2017-Dec-10 11:30N 43°21' E 005°19'0 0.0
2017-Dec-10 09:46N 43°21' E 005°19'0 0.0
2017-Dec-10 09:30N 43°21' E 005°19'0 0.0
2017-Dec-10 09:00N 43°21' E 005°19'0 0.0
2017-Dec-10 08:30N 43°21' E 005°19'0 0.5
2017-Dec-10 07:45N 43°21' E 005°19'0 0.4
2017-Dec-10 07:28N 43°21' E 005°19'0 0.5
2017-Dec-10 06:38N 43°21' E 005°19'0 0.0
2017-Dec-10 06:12N 43°21' E 005°19'0 0.0
2017-Dec-10 05:59N 43°21' E 005°19'0 0.0
2017-Dec-10 04:43N 43°21' E 005°19'0 0.0
2017-Dec-10 04:30N 43°21' E 005°19'0 0.0
2017-Dec-10 03:52N 43°21' E 005°19'0 0.0
2017-Dec-10 03:09N 43°21' E 005°19'0 0.0
2017-Dec-10 02:52N 43°21' E 005°19'0 0.0
2017-Dec-10 02:28N 43°21' E 005°19'0 0.0
2017-Dec-10 01:41N 43°21' E 005°19'0 0.0
2017-Dec-10 01:19N 43°21' E 005°19'0 0.0
2017-Dec-10 01:00N 43°21' E 005°19'0 0.0
2017-Dec-10 00:29N 43°21' E 005°19'0 0.0
2017-Dec-09 23:58N 43°21' E 005°19'0 0.0
2017-Dec-09 23:20N 43°21' E 005°19'0 0.0
2017-Dec-09 22:59N 43°21' E 005°19'0 0.0
2017-Dec-09 17:40N 43°21' E 005°19'0 0.0
2017-Dec-09 17:27N 43°21' E 005°19'0 0.0
2017-Dec-09 16:59N 43°21' E 005°19'0 0.0
2017-Dec-09 16:28N 43°21' E 005°19'0 0.0
2017-Dec-09 16:00N 43°21' E 005°19'0 0.0
2017-Dec-09 15:25N 43°21' E 005°19'2 2.5
2017-Dec-09 14:49N 43°20' E 005°21'1 3.8
2017-Dec-09 14:27N 43°19' E 005°22'3 4.7
2017-Dec-09 13:54N 43°21' E 005°20'0 1.0
2017-Dec-09 13:30N 43°21' E 005°19'1 0.8
2017-Dec-09 12:43N 43°21' E 005°20'1 2.2
2017-Dec-09 12:27N 43°21' E 005°19'0 0.0
2017-Dec-09 12:00N 43°21' E 005°19'0 0.0
2017-Dec-09 11:30N 43°21' E 005°19'0 0.0
2017-Dec-09 10:55N 43°21' E 005°19'0 0.0
2017-Dec-09 10:27N 43°21' E 005°19'0 0.0
2017-Dec-09 09:57N 43°21' E 005°19'3 6.8
2017-Dec-09 09:30N 43°19' E 005°22'1 1.5
2017-Dec-09 09:00N 43°18' E 005°22'2 3.0
2017-Dec-09 08:30N 43°19' E 005°21'2 4.1
2017-Dec-09 08:00N 43°21' E 005°19'0 0.0
2017-Dec-09 07:29N 43°21' E 005°19'0 0.0
2017-Dec-09 06:59N 43°21' E 005°19'0 0.0
2017-Dec-09 06:30N 43°21' E 005°19'0 0.0
2017-Dec-09 06:00N 43°21' E 005°19'0 0.0
2017-Dec-09 05:29N 43°21' E 005°19'2 4.4
2017-Dec-09 04:56N 43°19' E 005°21'2 5.5
2017-Dec-09 04:30N 43°21' E 005°19'0 0.0
2017-Dec-09 04:00N 43°21' E 005°19'0 0.0
2017-Dec-09 03:30N 43°21' E 005°19'0 0.0
2017-Dec-09 02:57N 43°21' E 005°19'0 0.0
2017-Dec-09 02:30N 43°21' E 005°19'0 0.0
2017-Dec-09 01:58N 43°21' E 005°19'0 0.0
2017-Dec-09 01:30N 43°21' E 005°19'0 0.0
2017-Dec-09 00:59N 43°21' E 005°19'0 0.0
2017-Dec-09 00:30N 43°21' E 005°19'0 0.0
2017-Dec-08 23:59N 43°21' E 005°19'0 0.0
2017-Dec-08 23:26N 43°21' E 005°19'0 0.0
2017-Dec-08 22:59N 43°21' E 005°19'0 0.0
2017-Dec-08 22:19N 43°21' E 005°19'0 0.0
2017-Dec-08 21:59N 43°21' E 005°19'0 0.0
2017-Dec-08 21:24N 43°21' E 005°19'0 0.0
2017-Dec-08 21:00N 43°21' E 005°19'0 0.0
2017-Dec-08 20:28N 43°21' E 005°19'0 0.0
2017-Dec-08 19:58N 43°21' E 005°19'0 0.0
2017-Dec-08 19:27N 43°21' E 005°19'0 0.5
2017-Dec-08 18:34N 43°21' E 005°20'0 4.7
2017-Dec-08 18:29N 43°21' E 005°19'0 0.2
2017-Dec-08 17:58N 43°21' E 005°19'0 0.3
2017-Dec-08 16:51N 43°21' E 005°19'0 0.0
2017-Dec-08 16:27N 43°21' E 005°19'0 0.0
2017-Dec-08 16:00N 43°21' E 005°19'0 0.0
2017-Dec-08 15:27N 43°21' E 005°19'0 0.0
2017-Dec-08 15:00N 43°21' E 005°19'0 0.0
2017-Dec-08 14:26N 43°21' E 005°19'0 0.0
2017-Dec-08 13:55N 43°21' E 005°19'0 0.0
2017-Dec-08 13:27N 43°21' E 005°19'0 0.0
2017-Dec-08 13:00N 43°21' E 005°19'0 0.0
2017-Dec-08 12:29N 43°21' E 005°19'0 0.0
2017-Dec-08 11:41N 43°21' E 005°19'0 0.0
2017-Dec-08 11:28N 43°21' E 005°19'0 0.0
2017-Dec-08 10:55N 43°21' E 005°19'0 0.0
2017-Dec-08 10:20N 43°21' E 005°19'0 0.0
2017-Dec-08 10:00N 43°21' E 005°19'0 0.0
2017-Dec-08 09:30N 43°21' E 005°19'0 0.0
2017-Dec-08 09:00N 43°21' E 005°19'0 0.0
2017-Dec-08 08:30N 43°21' E 005°19'0 0.0
2017-Dec-08 07:57N 43°21' E 005°19'0 0.0
2017-Dec-08 07:30N 43°21' E 005°19'0 0.0
2017-Dec-08 06:57N 43°21' E 005°19'0 0.0
2017-Dec-08 06:27N 43°21' E 005°19'0 0.0
2017-Dec-08 05:57N 43°21' E 005°19'0 0.0
2017-Dec-08 05:29N 43°21' E 005°19'0 0.0
2017-Dec-08 04:46N 43°21' E 005°19'1 1.1
2017-Dec-08 04:15N 43°21' E 005°20'1 1.3
2017-Dec-08 03:52N 43°21' E 005°19'0 0.3
2017-Dec-08 03:28N 43°21' E 005°19'0 0.0
2017-Dec-08 02:59N 43°21' E 005°19'0 0.0
2017-Dec-08 02:28N 43°21' E 005°19'0 0.0
2017-Dec-08 01:54N 43°21' E 005°19'0 0.0
2017-Dec-08 00:50N 43°21' E 005°19'0 0.0
2017-Dec-08 00:23N 43°21' E 005°19'0 0.0
2017-Dec-07 23:53N 43°21' E 005°19'0 0.0
2017-Dec-07 23:26N 43°21' E 005°19'0 0.0
2017-Dec-07 22:51N 43°21' E 005°19'0 0.0
2017-Dec-07 22:26N 43°21' E 005°19'0 0.0
2017-Dec-07 21:45N 43°21' E 005°19'0 0.0
2017-Dec-07 21:28N 43°21' E 005°19'0 0.0
2017-Dec-07 20:57N 43°21' E 005°19'0 0.0
2017-Dec-07 20:27N 43°21' E 005°19'0 0.0
2017-Dec-07 19:56N 43°21' E 005°19'0 0.0
2017-Dec-07 19:28N 43°21' E 005°19'0 0.0
2017-Dec-07 18:56N 43°21' E 005°19'0 0.0
2017-Dec-07 18:30N 43°21' E 005°19'0 0.0
2017-Dec-07 16:56N 43°21' E 005°19'0 0.0
2017-Dec-07 16:29N 43°21' E 005°19'0 0.3
2017-Dec-07 15:10N 43°21' E 005°20'0 2.8
2017-Dec-07 15:00N 43°21' E 005°19'0 0.0
2017-Dec-07 13:48N 43°21' E 005°19'  
Track history (hours):
 
Tides and Currents Weather Stations Pressure Air Temp Water Temp Dewpoint Dewpoint Depression Visibility Wind Speed Wind Dir Waves Ship Positions

Mistral 7

Last reported at 2017-Dec-17 11:59 UTC. Time now 2017-Dec-17 12:05 UTC.
Position N 43°21' E 005°19'.

Length 30 m; draft 5 m.

Type: Tug. MMSI: 227006650.

Date/timePositionNaut miles runAvg speedWind from/ knotsBaromVisibWave heightAir tempDewpointWater temp
2017-Dec-17 11:59N 43°21' E 005°19'0 0.0
2017-Dec-17 11:26N 43°21' E 005°19'0 0.0
2017-Dec-17 10:58N 43°21' E 005°19'0 0.0
2017-Dec-17 10:27N 43°21' E 005°19'0 0.0
2017-Dec-17 09:59N 43°21' E 005°19'0 0.0
2017-Dec-17 09:28N 43°21' E 005°19'0 0.0
2017-Dec-17 09:00N 43°21' E 005°19'0 0.3
2017-Dec-17 07:38N 43°21' E 005°20'0 1.8
2017-Dec-17 07:26N 43°21' E 005°19'2 5.4
2017-Dec-17 07:00N 43°19' E 005°21'1 1.6
2017-Dec-17 06:28N 43°18' E 005°22'0 1.0
2017-Dec-17 06:00N 43°18' E 005°22'1 1.9
2017-Dec-17 05:29N 43°19' E 005°22'3 0.5
2017-Dec-16 23:54N 43°21' E 005°19'0 0.0
2017-Dec-16 23:28N 43°21' E 005°19'0 0.0
2017-Dec-16 22:58N 43°21' E 005°19'0 0.0
2017-Dec-16 22:30N 43°21' E 005°19'0 0.0
2017-Dec-16 21:52N 43°21' E 005°19'0 0.0
2017-Dec-16 21:19N 43°21' E 005°19'0 0.8
2017-Dec-16 20:50N 43°21' E 005°20'0 1.1
2017-Dec-16 20:30N 43°21' E 005°19'0 0.0
2017-Dec-16 19:59N 43°21' E 005°19'0 0.0
2017-Dec-16 19:30N 43°21' E 005°19'0 0.0
2017-Dec-16 18:55N 43°21' E 005°19'0 0.0
2017-Dec-16 18:26N 43°21' E 005°19'2 5.4
2017-Dec-16 18:00N 43°19' E 005°21'0 0.4
2017-Dec-16 17:29N 43°19' E 005°21'1 2.7
2017-Dec-16 17:00N 43°18' E 005°22'0 0.6
2017-Dec-16 16:31N 43°18' E 005°21'3 6.7
2017-Dec-16 16:00N 43°21' E 005°20'0 0.6
2017-Dec-16 15:31N 43°21' E 005°19'0 0.0
2017-Dec-16 15:00N 43°21' E 005°19'2 3.4
2017-Dec-16 14:30N 43°20' E 005°21'1 0.9
2017-Dec-16 13:51N 43°20' E 005°20'1 2.9
2017-Dec-16 13:31N 43°21' E 005°19'0 0.8
2017-Dec-16 13:00N 43°21' E 005°19'1 1.2
2017-Dec-16 12:29N 43°21' E 005°20'0 0.8
2017-Dec-16 11:56N 43°20' E 005°20'1 1.4
2017-Dec-16 11:30N 43°20' E 005°21'1 3.0
2017-Dec-16 11:00N 43°21' E 005°19'0 0.0
2017-Dec-16 10:30N 43°21' E 005°19'0 0.0
2017-Dec-16 10:00N 43°21' E 005°19'0 0.0
2017-Dec-16 09:30N 43°21' E 005°19'0 0.0
2017-Dec-16 09:00N 43°21' E 005°19'0 0.0
2017-Dec-16 08:30N 43°21' E 005°19'0 0.5
2017-Dec-16 07:59N 43°21' E 005°19'0 0.6
2017-Dec-16 07:30N 43°21' E 005°19'0 0.0
2017-Dec-16 06:58N 43°21' E 005°19'0 0.0
2017-Dec-16 06:29N 43°21' E 005°19'1 1.1
2017-Dec-16 06:00N 43°21' E 005°20'1 1.0
2017-Dec-16 05:29N 43°21' E 005°19'1 1.2
2017-Dec-16 05:00N 43°21' E 005°20'0 0.4
2017-Dec-16 04:24N 43°21' E 005°20'0 1.0
2017-Dec-16 04:00N 43°21' E 005°19'0 0.0
2017-Dec-16 03:30N 43°21' E 005°19'0 0.0
2017-Dec-16 02:59N 43°21' E 005°19'0 0.0
2017-Dec-16 02:30N 43°21' E 005°19'0 0.0
2017-Dec-16 01:59N 43°21' E 005°19'0 0.0
2017-Dec-16 01:30N 43°21' E 005°19'0 0.0
2017-Dec-16 01:00N 43°21' E 005°19'0 0.0
2017-Dec-16 00:30N 43°21' E 005°19'0 0.0
2017-Dec-16 00:00N 43°21' E 005°19'0 0.0
2017-Dec-15 23:29N 43°21' E 005°19'0 0.0
2017-Dec-15 23:00N 43°21' E 005°19'0 0.0
2017-Dec-15 22:29N 43°21' E 005°19'0 0.0
2017-Dec-15 21:58N 43°21' E 005°19'0 0.0
2017-Dec-15 21:27N 43°21' E 005°19'0 0.0
2017-Dec-15 20:59N 43°21' E 005°19'0 0.0
2017-Dec-15 20:29N 43°21' E 005°19'0 0.0
2017-Dec-15 20:00N 43°21' E 005°19'0 0.0
2017-Dec-15 19:27N 43°21' E 005°19'0 0.0
2017-Dec-15 19:00N 43°21' E 005°19'0 0.0
2017-Dec-15 18:29N 43°21' E 005°19'0 0.0
2017-Dec-15 17:59N 43°21' E 005°19'0 0.0
2017-Dec-15 17:27N 43°21' E 005°19'0 0.0
2017-Dec-15 16:58N 43°21' E 005°19'0 0.0
2017-Dec-15 16:16N 43°21' E 005°19'0 0.0
2017-Dec-15 15:51N 43°21' E 005°19'0 0.0
2017-Dec-15 15:30N 43°21' E 005°19'0 0.0
2017-Dec-15 14:57N 43°21' E 005°19'0 0.0
2017-Dec-15 14:24N 43°21' E 005°19'0 0.0
2017-Dec-15 14:00N 43°21' E 005°19'0 0.0
2017-Dec-15 13:13N 43°21' E 005°19'0 0.0
2017-Dec-15 12:58N 43°21' E 005°19'0 0.0
2017-Dec-15 12:30N 43°21' E 005°19'0 0.0
2017-Dec-15 11:59N 43°21' E 005°19'0 0.0
2017-Dec-15 11:30N 43°21' E 005°19'0 0.0
2017-Dec-15 11:00N 43°21' E 005°19'0 0.0
2017-Dec-15 10:30N 43°21' E 005°19'0 0.0
2017-Dec-15 10:00N 43°21' E 005°19'0 0.0
2017-Dec-15 09:25N 43°21' E 005°19'0 0.0
2017-Dec-15 08:56N 43°21' E 005°19'0 0.0
2017-Dec-15 08:29N 43°21' E 005°19'0 0.0
2017-Dec-15 07:58N 43°21' E 005°19'0 0.0
2017-Dec-15 07:30N 43°21' E 005°19'0 0.0
2017-Dec-15 06:58N 43°21' E 005°19'0 0.0
2017-Dec-15 06:19N 43°21' E 005°19'0 0.0
2017-Dec-15 06:00N 43°21' E 005°19'0 0.0
2017-Dec-15 05:30N 43°21' E 005°19'0 0.0
2017-Dec-15 05:00N 43°21' E 005°19'0 0.0
2017-Dec-15 04:28N 43°21' E 005°19'0 0.0
2017-Dec-15 04:00N 43°21' E 005°19'0 0.0
2017-Dec-15 02:20N 43°21' E 005°19'0 0.0
2017-Dec-15 00:50N 43°21' E 005°19'0 0.0
2017-Dec-15 00:23N 43°21' E 005°19'0 0.1
2017-Dec-14 18:24N 43°21' E 005°20'0 1.2
2017-Dec-14 17:59N 43°21' E 005°19'0 0.0
2017-Dec-14 17:27N 43°21' E 005°19'0 0.0
2017-Dec-14 16:55N 43°21' E 005°19'0 0.0
2017-Dec-14 14:35N 43°21' E 005°19'0 0.0
2017-Dec-14 14:16N 43°21' E 005°19'0 0.0
2017-Dec-14 13:56N 43°21' E 005°19'0 0.0
2017-Dec-14 13:28N 43°21' E 005°19'0 0.0
2017-Dec-14 12:47N 43°21' E 005°19'0 0.0
2017-Dec-14 12:30N 43°21' E 005°19'0 0.0
2017-Dec-14 11:57N 43°21' E 005°19'0 0.0
2017-Dec-14 11:29N 43°21' E 005°19'0 0.0
2017-Dec-14 10:03N 43°21' E 005°19'0 0.0
2017-Dec-14 10:00N 43°21' E 005°19'0 0.0
2017-Dec-13 22:50N 43°21' E 005°19'0 0.0
2017-Dec-13 20:39N 43°21' E 005°19'0 0.0
2017-Dec-13 20:17N 43°21' E 005°19'0 0.0
2017-Dec-13 19:52N 43°21' E 005°19'0 0.0
2017-Dec-13 19:11N 43°21' E 005°19'0 0.0
2017-Dec-13 18:59N 43°21' E 005°19'0 0.0
2017-Dec-13 18:12N 43°21' E 005°19'0 0.0
2017-Dec-13 18:00N 43°21' E 005°19'0 0.0
2017-Dec-13 17:30N 43°21' E 005°19'0 0.0
2017-Dec-13 17:00N 43°21' E 005°19'0 0.0
2017-Dec-13 16:29N 43°21' E 005°19'0 0.0
2017-Dec-13 16:00N 43°21' E 005°19'0 0.0
2017-Dec-13 15:28N 43°21' E 005°19'0 0.0
2017-Dec-13 14:58N 43°21' E 005°19'0 0.0
2017-Dec-13 13:57N 43°21' E 005°19'0 0.0
2017-Dec-13 13:16N 43°21' E 005°19'0 0.0
2017-Dec-13 12:58N 43°21' E 005°19'0 0.0
2017-Dec-13 12:30N 43°21' E 005°19'0 0.0
2017-Dec-13 11:56N 43°21' E 005°19'0 0.0
2017-Dec-13 11:28N 43°21' E 005°19'0 0.0
2017-Dec-13 10:59N 43°21' E 005°19'0 0.0
2017-Dec-13 10:22N 43°21' E 005°19'0 0.0
2017-Dec-13 10:00N 43°21' E 005°19'0 0.0
2017-Dec-13 09:29N 43°21' E 005°19'0 0.0
2017-Dec-13 08:58N 43°21' E 005°19'0 0.0
2017-Dec-13 08:30N 43°21' E 005°19'0 0.0
2017-Dec-13 08:00N 43°21' E 005°19'0 0.5
2017-Dec-13 07:16N 43°21' E 005°19'0 1.2
2017-Dec-13 07:00N 43°21' E 005°19'0 0.0
2017-Dec-13 06:30N 43°21' E 005°19'0 0.0
2017-Dec-13 05:59N 43°21' E 005°19'0 0.0
2017-Dec-13 05:29N 43°21' E 005°19'0 0.0
2017-Dec-13 04:56N 43°21' E 005°19'0 0.0
2017-Dec-13 04:30N 43°21' E 005°19'0 0.0
2017-Dec-13 03:58N 43°21' E 005°19'0 0.0
2017-Dec-13 03:29N 43°21' E 005°19'0 0.0
2017-Dec-13 02:58N 43°21' E 005°19'0 0.0
2017-Dec-13 02:30N 43°21' E 005°19'0 0.0
2017-Dec-13 02:00N 43°21' E 005°19'0 0.0
2017-Dec-13 01:29N 43°21' E 005°19'0 0.0
2017-Dec-13 01:00N 43°21' E 005°19'0 0.0
2017-Dec-13 00:30N 43°21' E 005°19'0 0.0
2017-Dec-12 23:31N 43°21' E 005°19'0 0.0
2017-Dec-12 23:24N 43°21' E 005°19'0 0.0
2017-Dec-12 23:00N 43°21' E 005°19'0 0.0
2017-Dec-12 22:30N 43°21' E 005°19'0 0.0
2017-Dec-12 21:57N 43°21' E 005°19'0 0.0
2017-Dec-12 21:29N 43°21' E 005°19'0 0.0
2017-Dec-12 20:59N 43°21' E 005°19'0 0.0
2017-Dec-12 20:29N 43°21' E 005°19'0 0.2
2017-Dec-12 19:53N 43°21' E 005°20'0 0.2
2017-Dec-12 19:12N 43°21' E 005°19'0 0.0
2017-Dec-12 18:55N 43°21' E 005°19'0 0.0
2017-Dec-12 18:25N 43°21' E 005°19'0 0.0
2017-Dec-12 18:00N 43°21' E 005°19'0 0.0
2017-Dec-12 17:25N 43°21' E 005°19'0 0.0
2017-Dec-12 16:57N 43°21' E 005°19'0 0.0
2017-Dec-12 16:29N 43°21' E 005°19'0 0.0
2017-Dec-12 16:00N 43°21' E 005°19'0 0.0
2017-Dec-12 15:29N 43°21' E 005°19'0 0.0
2017-Dec-12 13:51N 43°21' E 005°19'0 0.0
2017-Dec-12 13:29N 43°21' E 005°19'0 0.0
2017-Dec-12 12:50N 43°21' E 005°19'0 0.0
2017-Dec-12 12:28N 43°21' E 005°19'0 0.0
2017-Dec-12 11:54N 43°21' E 005°19'0 0.0
2017-Dec-12 10:46N 43°21' E 005°19'0 0.0
2017-Dec-12 10:29N 43°21' E 005°19'0 0.0
2017-Dec-12 09:59N 43°21' E 005°19'0 0.0
2017-Dec-12 09:28N 43°21' E 005°19'0 0.0
2017-Dec-12 09:00N 43°21' E 005°19'0 0.0
2017-Dec-12 08:29N 43°21' E 005°19'0 0.0
2017-Dec-12 08:00N 43°21' E 005°19'2 4.0
2017-Dec-12 07:29N 43°19' E 005°21'0 0.8
2017-Dec-12 07:00N 43°19' E 005°22'2 3.7
2017-Dec-12 06:24N 43°21' E 005°19'0 0.3
2017-Dec-12 06:00N 43°21' E 005°19'0 0.0
2017-Dec-12 05:25N 43°21' E 005°19'0 0.0
2017-Dec-12 03:50N 43°21' E 005°19'0 0.0
2017-Dec-12 03:30N 43°21' E 005°19'0 0.0
2017-Dec-12 02:43N 43°21' E 005°19'0 0.0
2017-Dec-12 02:26N 43°21' E 005°19'0 0.0
2017-Dec-12 01:57N 43°21' E 005°19'0 0.0
2017-Dec-12 01:29N 43°21' E 005°19'0 0.0
2017-Dec-12 00:59N 43°21' E 005°19'0 0.0
2017-Dec-12 00:14N 43°21' E 005°19'0 0.0
2017-Dec-11 23:58N 43°21' E 005°19'0 0.0
2017-Dec-11 23:21N 43°21' E 005°19'0 0.0
2017-Dec-11 23:00N 43°21' E 005°19'0 0.0
2017-Dec-11 22:29N 43°21' E 005°19'0 0.0
2017-Dec-11 21:56N 43°21' E 005°19'1 0.5
2017-Dec-11 20:40N 43°21' E 005°20'1 2.3
2017-Dec-11 20:26N 43°21' E 005°19'0 0.0
2017-Dec-11 19:59N 43°21' E 005°19'0 0.0
2017-Dec-11 19:28N 43°21' E 005°19'0 0.0
2017-Dec-11 18:55N 43°21' E 005°19'0 0.0
2017-Dec-11 18:24N 43°21' E 005°19'0 0.0
2017-Dec-11 17:51N 43°21' E 005°19'0 0.0
2017-Dec-11 17:26N 43°21' E 005°19'0 0.0
2017-Dec-11 16:57N 43°21' E 005°19'0 0.0
2017-Dec-11 16:22N 43°21' E 005°19'0 0.0
2017-Dec-11 15:53N 43°21' E 005°19'0 0.0
2017-Dec-11 15:29N 43°21' E 005°19'0 0.0
2017-Dec-11 15:00N 43°21' E 005°19'0 0.0
2017-Dec-11 14:24N 43°21' E 005°19'2 1.2
2017-Dec-11 13:03N 43°20' E 005°21'210.4
2017-Dec-11 12:53N 43°21' E 005°19'1 1.4
2017-Dec-11 12:22N 43°21' E 005°20'1 1.7
2017-Dec-11 11:59N 43°21' E 005°19'0 0.2
2017-Dec-11 11:00N 43°21' E 005°19'0 0.0
2017-Dec-11 10:27N 43°21' E 005°19'0 0.0
2017-Dec-11 09:58N 43°21' E 005°19'0 0.0
2017-Dec-11 09:12N 43°21' E 005°19'0 0.0
2017-Dec-11 08:48N 43°21' E 005°19'0 0.0
2017-Dec-11 08:21N 43°21' E 005°19'0 0.0
2017-Dec-11 07:59N 43°21' E 005°19'0 0.1
2017-Dec-11 06:46N 43°21' E 005°19'1 0.9
2017-Dec-11 06:11N 43°21' E 005°20'1 2.7
2017-Dec-11 05:55N 43°21' E 005°19'1 2.7
2017-Dec-11 05:30N 43°20' E 005°20'1 1.9
2017-Dec-11 04:58N 43°21' E 005°19'0 0.4
2017-Dec-11 04:30N 43°21' E 005°19'0 0.0
2017-Dec-11 03:58N 43°21' E 005°19'0 0.0
2017-Dec-11 03:17N 43°21' E 005°19'0 0.0
2017-Dec-11 02:58N 43°21' E 005°19'2 5.2
2017-Dec-11 02:30N 43°19' E 005°21'1 2.9
2017-Dec-11 02:00N 43°20' E 005°20'1 1.8
2017-Dec-11 01:29N 43°21' E 005°19'0 0.0
2017-Dec-11 00:57N 43°21' E 005°19'0 0.0
2017-Dec-11 00:04N 43°21' E 005°19'0 0.0
2017-Dec-10 23:47N 43°21' E 005°19'0 0.0
2017-Dec-10 23:25N 43°21' E 005°19'0 0.0
2017-Dec-10 22:49N 43°21' E 005°19'0 0.0
2017-Dec-10 22:11N 43°21' E 005°19'0 0.0
2017-Dec-10 22:00N 43°21' E 005°19'0 0.0
2017-Dec-10 19:54N 43°21' E 005°19'0 0.0
2017-Dec-10 19:25N 43°21' E 005°19'0 0.0
2017-Dec-10 18:57N 43°21' E 005°19'0 0.0
2017-Dec-10 18:24N 43°21' E 005°19'0 0.0
2017-Dec-10 17:51N 43°21' E 005°19'0 0.0
2017-Dec-10 16:03N 43°21' E 005°19'0 0.0
2017-Dec-10 15:44N 43°21' E 005°19'0 0.0
2017-Dec-10 15:26N 43°21' E 005°19'0 0.0
2017-Dec-10 12:13N 43°21' E 005°19'0 0.0
2017-Dec-10 11:48N 43°21' E 005°19'0 0.0
2017-Dec-10 11:30N 43°21' E 005°19'0 0.0
2017-Dec-10 09:46N 43°21' E 005°19'0 0.0
2017-Dec-10 09:30N 43°21' E 005°19'0 0.0
2017-Dec-10 09:00N 43°21' E 005°19'0 0.0
2017-Dec-10 08:30N 43°21' E 005°19'0 0.5
2017-Dec-10 07:45N 43°21' E 005°19'0 0.4
2017-Dec-10 07:28N 43°21' E 005°19'0 0.5
2017-Dec-10 06:38N 43°21' E 005°19'0 0.0
2017-Dec-10 06:12N 43°21' E 005°19'0 0.0
2017-Dec-10 05:59N 43°21' E 005°19'0 0.0
2017-Dec-10 04:43N 43°21' E 005°19'0 0.0
2017-Dec-10 04:30N 43°21' E 005°19'0 0.0
2017-Dec-10 03:52N 43°21' E 005°19'0 0.0
2017-Dec-10 03:09N 43°21' E 005°19'0 0.0
2017-Dec-10 02:52N 43°21' E 005°19'0 0.0
2017-Dec-10 02:28N 43°21' E 005°19'0 0.0
2017-Dec-10 01:41N 43°21' E 005°19'0 0.0
2017-Dec-10 01:19N 43°21' E 005°19'0 0.0
2017-Dec-10 01:00N 43°21' E 005°19'0 0.0
2017-Dec-10 00:29N 43°21' E 005°19'0 0.0
2017-Dec-09 23:58N 43°21' E 005°19'0 0.0
2017-Dec-09 23:20N 43°21' E 005°19'0 0.0
2017-Dec-09 22:59N 43°21' E 005°19'0 0.0
2017-Dec-09 17:40N 43°21' E 005°19'0 0.0
2017-Dec-09 17:27N 43°21' E 005°19'0 0.0
2017-Dec-09 16:59N 43°21' E 005°19'0 0.0
2017-Dec-09 16:28N 43°21' E 005°19'0 0.0
2017-Dec-09 16:00N 43°21' E 005°19'0 0.0
2017-Dec-09 15:25N 43°21' E 005°19'2 2.5
2017-Dec-09 14:49N 43°20' E 005°21'1 3.8
2017-Dec-09 14:27N 43°19' E 005°22'3 4.7
2017-Dec-09 13:54N 43°21' E 005°20'0 1.0
2017-Dec-09 13:30N 43°21' E 005°19'1 0.8
2017-Dec-09 12:43N 43°21' E 005°20'1 2.2
2017-Dec-09 12:27N 43°21' E 005°19'0 0.0
2017-Dec-09 12:00N 43°21' E 005°19'0 0.0
2017-Dec-09 11:30N 43°21' E 005°19'0 0.0
2017-Dec-09 10:55N 43°21' E 005°19'0 0.0
2017-Dec-09 10:27N 43°21' E 005°19'0 0.0
2017-Dec-09 09:57N 43°21' E 005°19'3 6.8
2017-Dec-09 09:30N 43°19' E 005°22'1 1.5
2017-Dec-09 09:00N 43°18' E 005°22'2 3.0
2017-Dec-09 08:30N 43°19' E 005°21'2 4.1
2017-Dec-09 08:00N 43°21' E 005°19'0 0.0
2017-Dec-09 07:29N 43°21' E 005°19'0 0.0
2017-Dec-09 06:59N 43°21' E 005°19'0 0.0
2017-Dec-09 06:30N 43°21' E 005°19'0 0.0
2017-Dec-09 06:00N 43°21' E 005°19'0 0.0
2017-Dec-09 05:29N 43°21' E 005°19'2 4.4
2017-Dec-09 04:56N 43°19' E 005°21'2 5.5
2017-Dec-09 04:30N 43°21' E 005°19'0 0.0
2017-Dec-09 04:00N 43°21' E 005°19'0 0.0
2017-Dec-09 03:30N 43°21' E 005°19'0 0.0
2017-Dec-09 02:57N 43°21' E 005°19'0 0.0
2017-Dec-09 02:30N 43°21' E 005°19'0 0.0
2017-Dec-09 01:58N 43°21' E 005°19'0 0.0
2017-Dec-09 01:30N 43°21' E 005°19'0 0.0
2017-Dec-09 00:59N 43°21' E 005°19'0 0.0
2017-Dec-09 00:30N 43°21' E 005°19'0 0.0
2017-Dec-08 23:59N 43°21' E 005°19'0 0.0
2017-Dec-08 23:26N 43°21' E 005°19'0 0.0
2017-Dec-08 22:59N 43°21' E 005°19'0 0.0
2017-Dec-08 22:19N 43°21' E 005°19'0 0.0
2017-Dec-08 21:59N 43°21' E 005°19'0 0.0
2017-Dec-08 21:24N 43°21' E 005°19'0 0.0
2017-Dec-08 21:00N 43°21' E 005°19'0 0.0
2017-Dec-08 20:28N 43°21' E 005°19'0 0.0
2017-Dec-08 19:58N 43°21' E 005°19'0 0.0
2017-Dec-08 19:27N 43°21' E 005°19'0 0.5
2017-Dec-08 18:34N 43°21' E 005°20'0 4.7
2017-Dec-08 18:29N 43°21' E 005°19'0 0.2
2017-Dec-08 17:58N 43°21' E 005°19'0 0.3
2017-Dec-08 16:51N 43°21' E 005°19'0 0.0
2017-Dec-08 16:27N 43°21' E 005°19'0 0.0
2017-Dec-08 16:00N 43°21' E 005°19'0 0.0
2017-Dec-08 15:27N 43°21' E 005°19'0 0.0
2017-Dec-08 15:00N 43°21' E 005°19'0 0.0
2017-Dec-08 14:26N 43°21' E 005°19'0 0.0
2017-Dec-08 13:55N 43°21' E 005°19'0 0.0
2017-Dec-08 13:27N 43°21' E 005°19'0 0.0
2017-Dec-08 13:00N 43°21' E 005°19'0 0.0
2017-Dec-08 12:29N 43°21' E 005°19'0 0.0
2017-Dec-08 11:41N 43°21' E 005°19'0 0.0
2017-Dec-08 11:28N 43°21' E 005°19'0 0.0
2017-Dec-08 10:55N 43°21' E 005°19'0 0.0
2017-Dec-08 10:20N 43°21' E 005°19'0 0.0
2017-Dec-08 10:00N 43°21' E 005°19'0 0.0
2017-Dec-08 09:30N 43°21' E 005°19'0 0.0
2017-Dec-08 09:00N 43°21' E 005°19'0 0.0
2017-Dec-08 08:30N 43°21' E 005°19'0 0.0
2017-Dec-08 07:57N 43°21' E 005°19'0 0.0
2017-Dec-08 07:30N 43°21' E 005°19'0 0.0
2017-Dec-08 06:57N 43°21' E 005°19'0 0.0
2017-Dec-08 06:27N 43°21' E 005°19'0 0.0
2017-Dec-08 05:57N 43°21' E 005°19'0 0.0
2017-Dec-08 05:29N 43°21' E 005°19'0 0.0
2017-Dec-08 04:46N 43°21' E 005°19'1 1.1
2017-Dec-08 04:15N 43°21' E 005°20'1 1.3
2017-Dec-08 03:52N 43°21' E 005°19'0 0.3
2017-Dec-08 03:28N 43°21' E 005°19'0 0.0
2017-Dec-08 02:59N 43°21' E 005°19'0 0.0
2017-Dec-08 02:28N 43°21' E 005°19'0 0.0
2017-Dec-08 01:54N 43°21' E 005°19'0 0.0
2017-Dec-08 00:50N 43°21' E 005°19'0 0.0
2017-Dec-08 00:23N 43°21' E 005°19'0 0.0
2017-Dec-07 23:53N 43°21' E 005°19'0 0.0
2017-Dec-07 23:26N 43°21' E 005°19'0 0.0
2017-Dec-07 22:51N 43°21' E 005°19'0 0.0
2017-Dec-07 22:26N 43°21' E 005°19'0 0.0
2017-Dec-07 21:45N 43°21' E 005°19'0 0.0
2017-Dec-07 21:28N 43°21' E 005°19'0 0.0
2017-Dec-07 20:57N 43°21' E 005°19'0 0.0
2017-Dec-07 20:27N 43°21' E 005°19'0 0.0
2017-Dec-07 19:56N 43°21' E 005°19'0 0.0
2017-Dec-07 19:28N 43°21' E 005°19'0 0.0
2017-Dec-07 18:56N 43°21' E 005°19'0 0.0
2017-Dec-07 18:30N 43°21' E 005°19'0 0.0
2017-Dec-07 16:56N 43°21' E 005°19'0 0.0
2017-Dec-07 16:29N 43°21' E 005°19'0 0.3
2017-Dec-07 15:10N 43°21' E 005°20'0 2.8
2017-Dec-07 15:00N 43°21' E 005°19'0 0.0
2017-Dec-07 13:48N 43°21' E 005°19'  

Dump ship's entire track history